createdAt,value
2022-09-11T00:46:13.571Z,4.70
2022-09-11T00:49:19.039Z,4.65
2022-09-11T00:52:34.642Z,4.40
2022-09-11T00:55:28.167Z,4.68
2022-09-11T00:58:19.286Z,4.50
2022-09-11T01:46:58.829Z,4.53
2022-09-11T01:50:02.187Z,4.43
2022-09-11T01:53:00.266Z,4.85
2022-09-11T01:56:11.304Z,4.60
2022-09-11T01:59:04.988Z,4.70
2022-09-11T02:48:11.259Z,3.90
2022-09-11T02:51:07.538Z,4.57
2022-09-11T02:54:20.656Z,4.27
2022-09-11T02:57:14.872Z,4.35
2022-09-11T04:31:38.967Z,2.75
2022-09-11T04:34:26.428Z,3.30
2022-09-11T04:37:14.071Z,2.97
2022-09-11T04:40:03.581Z,3.20
2022-09-11T04:42:50.792Z,2.90
2022-09-11T04:45:40.648Z,2.75
2022-09-11T04:48:29.198Z,2.78
2022-09-11T04:51:28.906Z,2.90
2022-09-11T04:54:18.287Z,3.00
2022-09-11T04:57:04.847Z,2.90
2022-09-11T04:59:53.451Z,3.05
2022-09-11T05:02:41.580Z,2.78
2022-09-11T05:05:27.895Z,2.88
2022-09-11T05:08:14.831Z,2.97
2022-09-11T05:11:01.753Z,2.80
2022-09-11T05:13:48.780Z,2.53
2022-09-11T05:16:35.872Z,2.67
2022-09-11T05:19:22.144Z,2.80
2022-09-11T05:22:07.886Z,2.67
2022-09-11T05:24:56.115Z,2.75
2022-09-11T05:27:42.194Z,3.00
2022-09-11T05:30:30.092Z,3.00
2022-09-11T05:33:16.035Z,2.70
2022-09-11T05:36:05.128Z,2.87
2022-09-11T05:38:54.337Z,2.63
2022-09-11T05:41:40.284Z,2.60
2022-09-11T05:44:26.250Z,2.58
2022-09-11T05:47:13.418Z,2.30
2022-09-11T05:50:01.414Z,2.80
2022-09-11T05:52:46.781Z,2.90
2022-09-11T05:55:38.134Z,4.35
2022-09-11T05:58:32.741Z,2.28
2022-09-11T06:01:24.357Z,2.88
2022-09-11T06:04:19.190Z,2.63
2022-09-11T06:07:07.680Z,2.58
2022-09-11T06:09:54.706Z,2.50
2022-09-11T06:12:40.915Z,2.58
2022-09-11T06:15:45.707Z,2.47
2022-09-11T06:18:33.362Z,2.70
2022-09-11T06:21:25.338Z,2.70
2022-09-11T06:24:22.973Z,2.45
2022-09-11T06:27:09.363Z,2.28
2022-09-11T06:29:58.924Z,2.40
2022-09-11T06:32:49.702Z,2.50
2022-09-11T06:35:39.132Z,2.67
2022-09-11T06:38:29.053Z,2.42
2022-09-11T06:41:16.812Z,2.67
2022-09-11T06:44:03.376Z,2.75
2022-09-11T06:46:49.935Z,2.60
2022-09-11T06:49:36.859Z,2.83
2022-09-11T06:52:52.230Z,2.33
2022-09-11T06:55:51.865Z,2.60
2022-09-11T06:58:39.870Z,2.65
2022-09-11T07:01:26.782Z,2.60
2022-09-11T07:04:40.710Z,2.75
2022-09-11T07:07:27.655Z,2.38
2022-09-11T07:10:27.292Z,3.03
2022-09-11T07:13:37.312Z,2.80
2022-09-11T07:16:27.676Z,2.83
2022-09-11T07:19:28.016Z,2.70
2022-09-11T07:22:15.645Z,2.35
2022-09-11T07:25:07.517Z,2.75
2022-09-11T07:27:59.222Z,2.78
2022-09-11T07:30:46.777Z,2.80
2022-09-11T07:33:50.948Z,2.85
2022-09-11T07:36:47.602Z,2.50
2022-09-11T07:40:06.608Z,2.92
2022-09-11T07:43:08.505Z,2.85
2022-09-11T07:45:56.767Z,2.73
2022-09-11T07:48:48.199Z,2.97
2022-09-11T07:52:07.509Z,2.83
2022-09-11T07:55:02.849Z,2.72
2022-09-11T07:57:54.350Z,2.97
2022-09-11T08:00:41.475Z,2.60
2022-09-11T08:03:36.084Z,2.70
2022-09-11T08:06:24.082Z,3.13
2022-09-11T08:09:15.327Z,3.20
2022-09-11T08:12:11.378Z,3.20
2022-09-11T08:15:00.328Z,3.07
2022-09-11T08:17:50.972Z,3.25
2022-09-11T08:20:37.420Z,2.83
2022-09-11T08:23:35.263Z,3.35
2022-09-11T08:26:26.625Z,3.03
2022-09-11T08:29:13.901Z,2.90
2022-09-11T08:32:14.026Z,3.03
2022-09-11T08:35:12.707Z,3.20
2022-09-11T08:42:21.595Z,3.40
2022-09-11T08:45:24.603Z,3.30
2022-09-11T08:48:33.116Z,2.90
2022-09-11T08:52:05.519Z,4.10
2022-09-11T08:55:24.247Z,3.53
2022-09-11T09:02:57.734Z,5.50
2022-09-11T09:05:52.815Z,5.50
2022-09-11T09:09:30.754Z,5.10
2022-09-11T09:12:59.471Z,5.10
2022-09-11T09:16:18.825Z,4.55
2022-09-11T09:24:07.509Z,4.47
2022-09-11T09:27:35.908Z,4.72
2022-09-11T09:31:01.940Z,4.95
2022-09-11T09:35:25.613Z,4.88
2022-09-11T09:52:35.622Z,4.93
2022-09-11T09:58:37.022Z,5.63
2022-09-11T10:01:58.524Z,6.50
2022-09-11T10:13:52.923Z,6.03
2022-09-11T10:20:50.255Z,5.47
2022-09-11T10:23:58.442Z,5.80
2022-09-11T10:26:53.359Z,5.50
2022-09-11T10:33:52.189Z,5.63
2022-09-11T10:37:46.561Z,5.47
2022-09-11T10:44:14.313Z,5.25
2022-09-11T10:47:06.423Z,5.30
2022-09-11T10:50:21.020Z,5.33
2022-09-11T10:53:19.229Z,4.65
2022-09-11T10:56:06.004Z,4.95
2022-09-11T10:58:56.468Z,5.20
2022-09-11T11:01:41.714Z,5.30
2022-09-11T11:04:31.549Z,5.67
2022-09-11T11:07:26.091Z,4.97
2022-09-11T11:10:35.261Z,4.78
2022-09-11T11:13:39.308Z,4.85
2022-09-11T11:16:45.417Z,4.88
2022-09-11T11:19:43.580Z,5.47
2022-09-11T11:22:45.295Z,4.95
2022-09-11T11:25:54.255Z,5.05
2022-09-11T11:29:05.440Z,4.78
2022-09-11T11:31:58.745Z,4.82
2022-09-11T11:35:03.312Z,4.57
2022-09-11T11:37:53.221Z,4.75
2022-09-11T11:40:57.593Z,4.40
2022-09-11T11:43:44.375Z,4.40
2022-09-11T11:46:45.250Z,4.28
2022-09-11T11:49:45.617Z,4.17
2022-09-11T11:52:30.782Z,4.30
2022-09-11T11:55:25.345Z,4.38
2022-09-11T11:58:22.581Z,4.28
2022-09-11T12:01:16.176Z,4.60
2022-09-11T12:04:24.368Z,4.03
2022-09-11T12:07:31.043Z,3.33
2022-09-11T12:10:35.426Z,4.05
2022-09-11T12:13:32.500Z,3.70
2022-09-11T12:16:29.130Z,3.75
2022-09-11T12:19:16.949Z,4.27
2022-09-11T12:22:11.672Z,3.60
2022-09-11T12:25:00.450Z,3.65
2022-09-11T12:27:55.707Z,3.80
2022-09-11T12:31:13.813Z,3.47
2022-09-11T12:33:59.184Z,3.53
2022-09-11T12:36:50.660Z,3.42
2022-09-11T12:39:46.244Z,3.40
2022-09-11T12:42:31.651Z,3.45
2022-09-11T12:45:32.388Z,3.30
2022-09-11T12:48:22.272Z,3.43
2022-09-11T12:51:24.929Z,3.17
2022-09-11T12:54:15.496Z,3.38
2022-09-11T12:57:03.739Z,3.47
2022-09-11T12:59:57.671Z,2.95
2022-09-11T13:02:46.647Z,3.53
2022-09-11T13:05:37.949Z,2.80
2022-09-11T13:08:26.591Z,3.03
2022-09-11T13:11:38.507Z,3.38
2022-09-11T13:14:28.040Z,3.00
2022-09-11T13:17:34.549Z,3.83
2022-09-11T13:20:22.958Z,3.15
2022-09-11T13:23:18.488Z,3.38
2022-09-11T13:26:06.278Z,3.40
2022-09-11T13:28:55.161Z,4.65
2022-09-11T13:31:40.260Z,5.20
2022-09-11T13:34:29.339Z,4.00
2022-09-11T13:37:46.867Z,3.65
2022-09-11T13:40:48.775Z,3.72
2022-09-11T13:43:44.229Z,3.80
2022-09-11T13:46:32.539Z,3.37
2022-09-11T13:49:17.866Z,3.67
2022-09-11T13:52:07.391Z,3.28
2022-09-11T13:54:55.100Z,3.40
2022-09-11T13:58:00.751Z,3.75
2022-09-11T14:00:48.583Z,3.40
2022-09-11T14:03:34.203Z,3.33
2022-09-11T14:06:20.688Z,3.47
2022-09-11T14:09:05.924Z,3.70
2022-09-11T14:11:51.366Z,3.30
2022-09-11T14:14:36.829Z,3.40
2022-09-11T14:17:23.122Z,3.10
2022-09-11T14:20:16.845Z,3.33
2022-09-11T14:23:05.989Z,3.08
2022-09-11T14:26:14.677Z,3.40
2022-09-11T14:29:25.484Z,3.17
2022-09-11T14:32:32.267Z,3.70
2022-09-11T14:35:17.892Z,3.33
2022-09-11T14:38:03.998Z,3.08
2022-09-11T14:40:55.281Z,3.42
2022-09-11T14:43:40.612Z,3.40
2022-09-11T14:46:25.703Z,2.97
2022-09-11T14:49:12.791Z,3.30
2022-09-11T14:52:00.187Z,2.75
2022-09-11T14:54:45.366Z,3.40
2022-09-11T14:57:33.578Z,3.33
2022-09-11T15:00:19.832Z,3.17
2022-09-11T15:03:05.071Z,3.10
2022-09-11T15:05:57.294Z,3.17
2022-09-11T15:08:42.155Z,2.88
2022-09-11T15:11:27.327Z,3.03
2022-09-11T15:14:23.672Z,3.72
2022-09-11T15:17:19.160Z,3.05
2022-09-11T15:20:07.185Z,3.10
2022-09-11T15:22:52.499Z,2.90
2022-09-11T15:25:37.785Z,3.00
2022-09-11T15:28:23.370Z,2.97
2022-09-11T15:31:09.073Z,2.88
2022-09-11T15:33:54.353Z,3.10
2022-09-11T15:36:39.959Z,2.80
2022-09-11T15:39:25.636Z,2.90
2022-09-11T15:42:11.368Z,2.85
2022-09-11T15:44:56.841Z,3.03
2022-09-11T15:47:42.302Z,2.67
2022-09-11T15:50:30.049Z,2.70
2022-09-11T15:53:14.986Z,3.00
2022-09-11T15:56:05.326Z,2.80
2022-09-11T15:58:50.643Z,2.95
2022-09-11T16:01:37.421Z,3.30
2022-09-11T16:04:27.938Z,2.65
2022-09-11T16:07:13.828Z,2.47
2022-09-11T16:09:58.938Z,2.95
2022-09-11T16:12:45.813Z,2.63
2022-09-11T16:15:30.886Z,2.88
2022-09-11T16:18:19.104Z,2.80
2022-09-11T16:21:06.158Z,2.77
2022-09-11T16:23:55.890Z,3.15
2022-09-11T16:26:44.308Z,2.65
2022-09-11T16:29:51.141Z,2.80
2022-09-11T16:32:39.106Z,2.90
2022-09-11T16:35:25.503Z,2.70
2022-09-11T16:38:10.937Z,3.05
2022-09-11T16:41:08.171Z,2.85
2022-09-11T16:43:53.836Z,2.92
2022-09-11T16:46:40.581Z,2.70
2022-09-11T16:49:25.447Z,2.87
2022-09-11T16:52:11.211Z,2.80
2022-09-11T16:54:56.398Z,2.70
2022-09-11T16:57:41.407Z,2.72
2022-09-11T17:00:26.902Z,2.85
2022-09-11T17:03:13.468Z,2.73
2022-09-11T17:05:58.993Z,2.80
2022-09-11T17:08:44.788Z,2.65
2022-09-11T17:11:32.348Z,2.97
2022-09-11T17:14:19.662Z,2.72
2022-09-11T17:17:04.913Z,2.70
2022-09-11T17:19:51.239Z,2.72
2022-09-11T17:22:37.359Z,2.75
2022-09-11T17:25:23.527Z,2.83
2022-09-11T17:28:08.453Z,2.63
2022-09-11T17:30:53.352Z,2.70
2022-09-11T17:33:40.191Z,2.75
2022-09-11T17:36:25.137Z,2.70
2022-09-11T17:39:10.435Z,2.42
2022-09-11T17:41:55.277Z,2.58
2022-09-11T17:44:41.262Z,2.70
2022-09-11T17:47:33.598Z,2.67
2022-09-11T17:50:18.615Z,3.13
2022-09-11T17:53:03.913Z,3.03
2022-09-11T17:55:49.149Z,2.95
2022-09-11T17:58:35.171Z,2.83
2022-09-11T18:01:20.825Z,2.65
2022-09-11T18:04:06.951Z,2.83
2022-09-11T18:06:52.742Z,2.60
2022-09-11T18:09:37.775Z,2.60
2022-09-11T18:12:22.950Z,2.50
2022-09-11T18:15:08.729Z,2.53
2022-09-11T18:17:54.050Z,2.63
2022-09-11T18:20:39.101Z,2.65
2022-09-11T18:23:24.251Z,2.60
2022-09-11T18:26:19.855Z,2.40
2022-09-11T18:29:11.271Z,2.83
2022-09-11T18:31:56.682Z,3.00
2022-09-11T18:34:41.803Z,2.70
2022-09-11T18:37:27.170Z,2.58
2022-09-11T18:40:12.596Z,3.07
2022-09-11T18:42:59.996Z,2.88
2022-09-11T18:45:45.634Z,3.30
2022-09-11T18:48:30.566Z,3.13
2022-09-11T18:51:16.607Z,3.50
2022-09-11T18:54:03.725Z,2.97
2022-09-11T18:56:50.242Z,3.03
2022-09-11T18:59:35.183Z,3.10
2022-09-11T19:02:20.104Z,3.00
2022-09-11T19:05:06.021Z,3.00
2022-09-11T19:07:51.397Z,3.07
2022-09-11T19:10:36.818Z,2.85
2022-09-11T19:13:25.693Z,2.85
2022-09-11T19:16:11.750Z,2.90
2022-09-11T19:18:57.014Z,2.60
2022-09-11T19:21:42.493Z,2.63
2022-09-11T19:24:29.521Z,2.75
2022-09-11T19:27:14.675Z,2.85
2022-09-11T19:30:00.427Z,2.50
2022-09-11T19:32:46.642Z,2.38
2022-09-11T19:35:32.156Z,2.20
2022-09-11T19:38:18.696Z,2.60
2022-09-11T19:41:05.539Z,2.20
2022-09-11T19:43:51.151Z,2.13
2022-09-11T19:46:38.109Z,2.53
2022-09-11T19:49:24.062Z,2.30
2022-09-11T19:52:11.629Z,2.40
2022-09-11T19:54:58.157Z,2.38
2022-09-11T19:57:43.382Z,2.70
2022-09-11T20:00:29.382Z,3.00
2022-09-11T20:03:16.373Z,3.10
2022-09-11T20:06:02.044Z,2.80
2022-09-11T20:08:48.546Z,2.75
2022-09-11T20:11:35.051Z,2.80
2022-09-11T20:14:20.338Z,2.55
2022-09-11T20:17:08.247Z,2.70
2022-09-11T20:19:53.125Z,2.40
2022-09-11T20:22:38.586Z,2.20
2022-09-11T20:25:23.678Z,2.50
2022-09-11T20:28:10.475Z,2.40
2022-09-11T20:30:55.796Z,2.37
2022-09-11T20:33:41.207Z,2.20
2022-09-11T20:36:29.796Z,2.47
2022-09-11T20:39:15.438Z,2.60
2022-09-11T20:42:00.762Z,2.15
2022-09-11T20:44:47.457Z,2.33
2022-09-11T20:47:32.315Z,2.60
2022-09-11T20:50:18.128Z,2.40
2022-09-11T20:53:03.402Z,2.40
2022-09-11T20:55:49.562Z,2.30
2022-09-11T20:58:35.780Z,2.60
2022-09-11T21:01:23.076Z,2.25
2022-09-11T21:04:08.460Z,2.22
2022-09-11T21:06:53.991Z,2.45
2022-09-11T21:09:40.603Z,2.60
2022-09-11T21:12:26.649Z,2.40
2022-09-11T21:15:11.806Z,2.28
2022-09-11T21:17:56.890Z,2.03
2022-09-11T21:20:41.978Z,2.35
2022-09-11T21:23:27.386Z,2.20
2022-09-11T21:26:15.359Z,2.17
2022-09-11T21:29:03.351Z,2.30
2022-09-11T21:31:48.898Z,2.00
2022-09-11T21:34:34.272Z,2.10
2022-09-11T21:37:19.349Z,2.35
2022-09-11T21:40:05.463Z,2.30
2022-09-11T21:42:51.079Z,1.98
2022-09-11T21:45:36.031Z,2.28
2022-09-11T21:48:21.272Z,2.17
2022-09-11T21:51:08.022Z,2.20
2022-09-11T21:53:58.900Z,2.00
2022-09-11T21:56:43.893Z,2.67
2022-09-11T21:59:28.862Z,2.10
2022-09-11T22:02:16.695Z,2.28
2022-09-11T22:05:01.818Z,2.40
2022-09-11T22:07:47.099Z,2.00
2022-09-11T22:10:32.223Z,2.13
2022-09-11T22:13:18.919Z,2.50
2022-09-11T22:16:10.715Z,2.10
2022-09-11T22:18:55.954Z,2.20
2022-09-11T22:21:41.397Z,2.30
2022-09-11T22:24:26.554Z,2.05
2022-09-11T22:27:12.022Z,2.20
2022-09-11T22:29:57.444Z,1.90
2022-09-11T22:32:42.895Z,1.80
2022-09-11T22:35:28.851Z,2.50
2022-09-11T22:38:14.154Z,1.92
2022-09-11T22:40:59.610Z,1.80
2022-09-11T22:43:47.528Z,2.17
2022-09-11T22:46:32.703Z,2.10
2022-09-11T22:49:17.731Z,2.20
2022-09-11T22:52:02.643Z,2.08
2022-09-11T22:54:47.841Z,2.03
2022-09-11T22:57:36.302Z,2.20
2022-09-11T23:46:26.052Z,1.70
2022-09-11T23:49:15.856Z,2.47
2022-09-11T23:52:01.698Z,2.20
2022-09-11T23:54:53.897Z,1.80
2022-09-11T23:57:44.080Z,1.83
